createdAt,value
2023-05-23T00:02:32.480Z,8.63
2023-05-23T00:07:36.757Z,6.43
2023-05-23T00:12:43.040Z,5.18
2023-05-23T00:17:47.640Z,4.63
2023-05-23T00:22:51.567Z,4.70
2023-05-23T00:27:55.599Z,4.57
2023-05-23T00:33:00.871Z,5.00
2023-05-23T00:38:08.667Z,5.07
2023-05-23T00:43:13.013Z,5.05
2023-05-23T00:48:17.120Z,5.40
2023-05-23T00:53:22.808Z,4.82
2023-05-23T00:58:26.954Z,4.97
2023-05-23T01:03:30.861Z,4.25
2023-05-23T01:14:30.717Z,4.20
2023-05-23T01:20:08.952Z,4.15
2023-05-23T01:25:31.473Z,4.30
2023-05-23T01:30:40.670Z,4.72
2023-05-23T01:35:46.183Z,4.57
2023-05-23T01:40:50.112Z,3.22
2023-05-23T01:45:57.323Z,4.38
2023-05-23T01:51:04.047Z,2.80
2023-05-23T01:56:09.184Z,2.63
2023-05-23T02:01:13.328Z,2.40
2023-05-23T02:06:17.384Z,2.65
2023-05-23T02:11:24.030Z,2.88
2023-05-23T02:16:27.884Z,3.00
2023-05-23T02:21:34.846Z,3.67
2023-05-23T02:26:42.560Z,3.33
2023-05-23T02:31:47.565Z,2.70
2023-05-23T02:36:52.348Z,2.85
2023-05-23T02:41:56.582Z,3.03
2023-05-23T02:47:02.724Z,2.97
2023-05-23T02:52:07.635Z,3.20
2023-05-23T02:57:11.647Z,2.95
2023-05-23T03:02:17.782Z,3.88
2023-05-23T03:07:28.058Z,3.47
2023-05-23T03:12:33.124Z,3.10
2023-05-23T03:17:37.312Z,3.92
2023-05-23T03:22:44.238Z,3.17
2023-05-23T03:27:48.160Z,2.70
2023-05-23T03:32:52.293Z,2.70
2023-05-23T03:37:56.637Z,2.50
2023-05-23T03:43:05.889Z,2.83
2023-05-23T03:48:13.082Z,2.58
2023-05-23T03:53:18.992Z,2.30
2023-05-23T03:58:23.034Z,1.90
2023-05-23T04:03:33.568Z,2.45
2023-05-23T04:08:42.689Z,3.97
2023-05-23T04:13:47.870Z,1.58
2023-05-23T04:18:53.179Z,1.85
2023-05-23T04:23:57.606Z,1.30
2023-05-23T04:29:02.568Z,1.30
2023-05-23T04:34:08.868Z,1.35
2023-05-23T04:39:16.806Z,1.40
2023-05-23T04:44:39.159Z,1.88
2023-05-23T04:49:49.788Z,1.42
2023-05-23T04:54:55.042Z,1.50
2023-05-23T04:59:59.119Z,1.65
2023-05-23T05:05:05.014Z,1.90
2023-05-23T05:10:28.364Z,1.70
2023-05-23T05:15:32.966Z,1.10
2023-05-23T05:20:39.522Z,1.38
2023-05-23T05:25:44.098Z,1.55
2023-05-23T05:30:49.194Z,1.30
2023-05-23T05:35:53.629Z,1.40
2023-05-23T05:40:58.422Z,3.03
2023-05-23T05:46:07.044Z,1.70
2023-05-23T05:51:11.651Z,1.45
2023-05-23T05:56:17.777Z,1.50
2023-05-23T06:01:21.735Z,1.98
2023-05-23T06:06:25.939Z,1.13
2023-05-23T06:11:30.518Z,1.55
2023-05-23T06:16:35.297Z,1.27
2023-05-23T06:21:40.028Z,1.40
2023-05-23T06:26:47.005Z,1.55
2023-05-23T06:31:50.979Z,1.60
2023-05-23T06:36:55.076Z,1.40
2023-05-23T06:41:59.179Z,1.38
2023-05-23T06:47:09.870Z,1.30
2023-05-23T06:52:14.787Z,1.40
2023-05-23T06:57:19.438Z,1.40
2023-05-23T07:02:24.405Z,1.20
2023-05-23T07:07:28.671Z,2.05
2023-05-23T07:12:34.753Z,1.23
2023-05-23T07:17:39.368Z,1.27
2023-05-23T07:22:43.722Z,1.88
2023-05-23T07:27:48.138Z,1.20
2023-05-23T07:32:53.407Z,1.30
2023-05-23T07:37:58.673Z,1.00
2023-05-23T07:43:03.038Z,1.88
2023-05-23T07:48:07.668Z,1.30
2023-05-23T07:53:11.772Z,1.10
2023-05-23T07:58:17.368Z,1.20
2023-05-23T08:03:21.387Z,1.27
2023-05-23T08:08:37.294Z,1.60
2023-05-23T08:13:43.322Z,1.30
2023-05-23T08:19:05.737Z,0.90
2023-05-23T08:24:12.169Z,0.88
2023-05-23T08:29:17.896Z,1.05
2023-05-23T08:34:22.134Z,1.23
2023-05-23T08:39:26.382Z,1.05
2023-05-23T08:44:41.693Z,1.00
2023-05-23T08:49:47.136Z,1.08
2023-05-23T08:54:52.190Z,1.40
2023-05-23T08:59:57.583Z,1.00
2023-05-23T09:05:01.691Z,1.05
2023-05-23T09:10:09.617Z,1.25
2023-05-23T09:15:13.854Z,0.88
2023-05-23T09:20:19.352Z,1.30
2023-05-23T09:25:30.035Z,2.58
2023-05-23T09:30:35.783Z,1.10
2023-05-23T09:35:46.991Z,1.02
2023-05-23T09:40:51.175Z,0.80
2023-05-23T09:45:56.878Z,1.00
2023-05-23T09:51:05.907Z,3.25
2023-05-23T09:56:16.395Z,4.27
2023-05-23T10:01:24.435Z,4.30
2023-05-23T10:06:54.163Z,1.30
2023-05-23T10:12:20.996Z,1.20
2023-05-23T10:17:39.314Z,1.10
2023-05-23T10:22:44.024Z,1.02
2023-05-23T10:27:52.254Z,1.40
2023-05-23T10:33:00.117Z,1.38
2023-05-23T10:38:52.202Z,1.05
2023-05-23T10:44:34.639Z,1.02
2023-05-23T10:49:40.038Z,1.20
2023-05-23T10:54:46.682Z,0.80
2023-05-23T10:59:53.494Z,0.90
2023-05-23T11:05:21.367Z,1.00
2023-05-23T11:10:25.830Z,1.33
2023-05-23T11:15:42.313Z,0.90
2023-05-23T11:20:48.317Z,1.00
2023-05-23T11:25:54.440Z,0.75
2023-05-23T11:30:58.641Z,1.80
2023-05-23T11:36:02.951Z,1.05
2023-05-23T11:41:07.262Z,0.98
2023-05-23T11:46:11.391Z,1.10
2023-05-23T11:51:34.021Z,0.70
2023-05-23T11:56:42.323Z,1.40
2023-05-23T12:01:46.638Z,1.08
2023-05-23T12:06:51.439Z,1.48
2023-05-23T12:11:55.828Z,1.73
2023-05-23T12:16:59.958Z,1.38
2023-05-23T12:22:09.002Z,2.50
2023-05-23T12:27:12.958Z,3.37
2023-05-23T12:32:17.669Z,1.40
2023-05-23T12:37:22.718Z,1.13
2023-05-23T12:42:28.698Z,1.83
2023-05-23T12:47:33.931Z,3.42
2023-05-23T12:52:38.318Z,1.50
2023-05-23T12:57:42.298Z,2.42
2023-05-23T13:02:47.013Z,1.35
2023-05-23T13:07:50.929Z,1.50
2023-05-23T13:12:55.045Z,1.80
2023-05-23T13:17:59.351Z,1.38
2023-05-23T13:23:03.365Z,1.88
2023-05-23T13:28:07.800Z,1.88
2023-05-23T13:33:11.758Z,2.25
2023-05-23T13:38:16.422Z,3.30
2023-05-23T13:43:20.375Z,4.03
2023-05-23T13:48:24.531Z,3.25
2023-05-23T13:53:28.685Z,3.97
2023-05-23T13:58:32.908Z,4.13
2023-05-23T14:03:37.552Z,4.30
2023-05-23T14:08:41.547Z,4.78
2023-05-23T14:13:45.714Z,5.20
2023-05-23T14:18:49.716Z,4.00
2023-05-23T14:23:53.918Z,4.55
2023-05-23T14:28:58.080Z,3.95
2023-05-23T14:34:02.118Z,4.60
2023-05-23T14:39:10.485Z,5.38
2023-05-23T14:44:14.915Z,4.05
2023-05-23T14:49:19.148Z,4.07
2023-05-23T14:54:23.147Z,3.33
2023-05-23T14:59:27.526Z,4.65
2023-05-23T15:04:32.207Z,3.00
2023-05-23T15:09:36.362Z,3.58
2023-05-23T15:14:40.596Z,3.45
2023-05-23T15:19:45.516Z,3.90
2023-05-23T15:24:49.663Z,4.38
2023-05-23T15:29:53.682Z,3.30
2023-05-23T15:34:57.742Z,4.07
2023-05-23T15:40:03.036Z,4.55
2023-05-23T15:45:08.023Z,4.60
2023-05-23T15:50:14.366Z,3.67
2023-05-23T15:55:18.623Z,2.95
2023-05-23T16:00:24.140Z,4.18
2023-05-23T16:05:28.342Z,5.97
2023-05-23T16:10:32.184Z,5.05
2023-05-23T16:15:36.523Z,6.50
2023-05-23T16:20:40.636Z,4.25
2023-05-23T16:25:45.014Z,9.43
2023-05-23T16:30:49.607Z,10.68
2023-05-23T16:35:53.540Z,10.45
2023-05-23T16:40:57.703Z,8.25
2023-05-23T16:46:01.924Z,3.40
2023-05-23T16:51:06.279Z,6.30
2023-05-23T16:56:10.212Z,11.65
2023-05-23T17:01:15.643Z,11.07
2023-05-23T17:06:19.710Z,9.23
2023-05-23T17:11:23.609Z,5.00
2023-05-23T17:16:31.134Z,4.50
2023-05-23T17:21:35.584Z,10.45
2023-05-23T17:26:39.652Z,9.18
2023-05-23T17:31:44.007Z,13.00
2023-05-23T17:36:48.194Z,12.18
2023-05-23T17:41:52.170Z,14.27
2023-05-23T17:46:58.385Z,11.45
2023-05-23T17:52:05.628Z,8.43
2023-05-23T17:57:09.655Z,8.48
2023-05-23T18:02:13.758Z,8.18
2023-05-23T18:07:20.662Z,9.25
2023-05-23T18:12:24.600Z,8.18
2023-05-23T18:17:28.996Z,8.43
2023-05-23T18:22:34.084Z,7.15
2023-05-23T18:27:38.329Z,8.05
2023-05-23T18:32:42.381Z,6.68
2023-05-23T18:37:47.209Z,7.32
2023-05-23T18:42:51.330Z,6.00
2023-05-23T18:47:55.654Z,5.45
2023-05-23T18:52:59.738Z,5.60
2023-05-23T18:58:03.796Z,5.60
2023-05-23T19:03:08.132Z,5.95
2023-05-23T19:08:12.076Z,8.63
2023-05-23T19:13:16.155Z,8.90
2023-05-23T19:18:20.847Z,6.65
2023-05-23T19:23:25.478Z,6.43
2023-05-23T19:28:29.583Z,5.78
2023-05-23T19:33:33.500Z,7.95
2023-05-23T19:38:37.638Z,7.75
2023-05-23T19:43:41.489Z,9.63
2023-05-23T19:48:45.751Z,8.40
2023-05-23T19:53:49.924Z,6.40
2023-05-23T19:58:53.969Z,7.72
2023-05-23T20:03:58.292Z,7.13
2023-05-23T20:09:02.593Z,6.75
2023-05-23T20:14:07.740Z,7.38
2023-05-23T20:19:11.840Z,6.97
2023-05-23T20:24:16.209Z,6.45
2023-05-23T20:29:20.456Z,7.82
2023-05-23T20:34:24.536Z,7.72
2023-05-23T20:39:28.683Z,7.70
2023-05-23T20:44:32.592Z,6.45
2023-05-23T20:49:38.307Z,7.00
2023-05-23T20:54:43.378Z,6.72
2023-05-23T20:59:47.830Z,5.47
2023-05-23T21:04:52.145Z,6.97
2023-05-23T21:09:56.454Z,5.75
2023-05-23T21:15:00.775Z,6.75
2023-05-23T21:20:08.592Z,5.97
2023-05-23T21:25:13.082Z,5.22
2023-05-23T21:30:17.245Z,4.95
2023-05-23T21:35:21.307Z,4.82
2023-05-23T21:40:26.552Z,4.63
2023-05-23T21:45:30.567Z,4.55
2023-05-23T21:50:34.654Z,4.47
2023-05-23T21:55:38.877Z,5.40
2023-05-23T22:00:44.272Z,5.00
2023-05-23T22:05:48.349Z,5.07
2023-05-23T22:10:52.515Z,4.72
2023-05-23T22:15:56.624Z,5.10
2023-05-23T22:21:00.568Z,4.82
2023-05-23T22:26:05.422Z,5.78
2023-05-23T22:31:12.091Z,5.47
2023-05-23T22:36:18.367Z,5.75
2023-05-23T22:41:24.071Z,6.40
2023-05-23T22:46:28.480Z,6.18
2023-05-23T22:51:34.916Z,6.05
2023-05-23T22:56:38.920Z,7.07
2023-05-23T23:01:42.885Z,5.72
2023-05-23T23:06:47.113Z,5.90
2023-05-23T23:11:51.191Z,7.30
2023-05-23T23:16:55.332Z,6.47
2023-05-23T23:21:59.738Z,7.88
2023-05-23T23:27:03.898Z,8.35
2023-05-23T23:32:08.144Z,10.70
2023-05-23T23:37:12.102Z,12.40
2023-05-23T23:42:16.677Z,8.55
2023-05-23T23:47:20.614Z,6.07
2023-05-23T23:52:24.678Z,8.20
2023-05-23T23:57:28.734Z,6.75
